Bunga Lily — 3EVF3 — position and weather

sailwx.info

Track history (hours):
 
Tides and Currents Weather Stations Pressure Air Temp Water Temp Dewpoint Dewpoint Depression Visibility Wind Speed Wind Dir Waves Ship Positions

Bunga Lily

Last reported at 2018-Jun-11 10:03 UTC. Time now 2018-Jun-23 02:56 UTC.
Position N 01°28' E 103°10'.
Warning: this ship's position is 11 days out of date.

Length 147 m; draft 9.3 m.

Type: Ship. MMSI: 355093000.

Date/timePositionNaut miles runAvg speedWind from/ knotsBaromVisibWave heightAir tempDewpointWater temp
2018-Jun-11 10:03N 01°28' E 103°10'912.0
2018-Jun-11 09:15N 01°22' E 103°17'312.6
2018-Jun-11 08:59N 01°19' E 103°20'613.0
2018-Jun-11 08:30N 01°15' E 103°24'713.1
2018-Jun-11 08:00N 01°13' E 103°31'612.7
2018-Jun-11 07:30N 01°12' E 103°37'611.2
2018-Jun-11 07:00N 01°09' E 103°42'611.1
2018-Jun-11 06:27N 01°10' E 103°48'510.1
2018-Jun-11 06:00N 01°12' E 103°52'510.4
2018-Jun-11 05:30N 01°14' E 103°57'5 8.9
2018-Jun-11 04:59N 01°15' E 104°01'510.8
2018-Jun-11 04:30N 01°16' E 104°07'5 9.9
2018-Jun-11 03:59N 01°17' E 104°12'510.0
2018-Jun-11 03:29N 01°18' E 104°16'5 9.9
2018-Jun-11 02:57N 01°20' E 104°21'  
Track history (hours):
 
Tides and Currents Weather Stations Pressure Air Temp Water Temp Dewpoint Dewpoint Depression Visibility Wind Speed Wind Dir Waves Ship Positions

Bunga Lily

Last reported at 2018-Jun-11 10:03 UTC. Time now 2018-Jun-23 02:56 UTC.
Position N 01°28' E 103°10'.
Warning: this ship's position is 11 days out of date.

Length 147 m; draft 9.3 m.

Type: Ship. MMSI: 355093000.

Date/timePositionNaut miles runAvg speedWind from/ knotsBaromVisibWave heightAir tempDewpointWater temp
2018-Jun-11 10:03N 01°28' E 103°10'912.0
2018-Jun-11 09:15N 01°22' E 103°17'312.6
2018-Jun-11 08:59N 01°19' E 103°20'613.0
2018-Jun-11 08:30N 01°15' E 103°24'713.1
2018-Jun-11 08:00N 01°13' E 103°31'612.7
2018-Jun-11 07:30N 01°12' E 103°37'611.2
2018-Jun-11 07:00N 01°09' E 103°42'611.1
2018-Jun-11 06:27N 01°10' E 103°48'510.1
2018-Jun-11 06:00N 01°12' E 103°52'510.4
2018-Jun-11 05:30N 01°14' E 103°57'5 8.9
2018-Jun-11 04:59N 01°15' E 104°01'510.8
2018-Jun-11 04:30N 01°16' E 104°07'5 9.9
2018-Jun-11 03:59N 01°17' E 104°12'510.0
2018-Jun-11 03:29N 01°18' E 104°16'5 9.9
2018-Jun-11 02:57N 01°20' E 104°21'  

Dump ship's entire track history